Time;durP1;ratioP1;P1;durP2;ratioP2;P2;SDS_P1;SDS_P2;PMS_P1;PMS_P2;Temp;Humidity;BMP_temperature;BMP_pressure;BME280_temperature;BME280_humidity;BME280_pressure;Samples;Min_cycle;Max_cycle;Signal;HPM_P1;HPM_P2
2023/06/28 00:01:55;;;;;;;6.82;3.97;;;;;;;18.76;100.00;-18531.72;4990881;28;20042;-78
2023/06/28 00:04:20;;;;;;;7.53;3.50;;;;;;;18.81;100.00;-18533.06;4992210;28;20850;-78
2023/06/28 00:06:46;;;;;;;6.32;3.53;;;;;;;18.81;100.00;-18533.06;4993214;28;20850;-78
2023/06/28 00:09:11;;;;;;;7.68;3.60;;;;;;;18.77;100.00;-18532.13;4991342;28;20065;-78
2023/06/28 00:11:36;;;;;;;8.02;3.88;;;;;;;18.80;100.00;-18532.81;4977658;28;20047;-78
2023/06/28 00:14:02;;;;;;;7.95;3.72;;;;;;;18.80;100.00;-18532.81;5020118;28;20074;-78
2023/06/28 00:16:27;;;;;;;7.30;3.80;;;;;;;18.92;100.00;-18536.06;4981046;28;20039;-78
2023/06/28 00:18:52;;;;;;;6.07;3.42;;;;;;;18.97;100.00;-18537.44;4988973;28;20045;-78
2023/06/28 00:21:18;;;;;;;5.75;3.63;;;;;;;18.91;100.00;-18535.94;4990479;28;20573;-80
2023/06/28 00:23:43;;;;;;;5.97;3.40;;;;;;;18.78;100.00;-18532.25;4992428;28;20769;-79
2023/06/28 00:26:09;;;;;;;6.28;3.72;;;;;;;18.67;100.00;-18529.38;4987785;28;20046;-79
2023/06/28 00:28:34;;;;;;;7.82;3.83;;;;;;;18.59;100.00;-18527.34;5013840;28;20042;-80
2023/06/28 00:31:00;;;;;;;6.70;3.80;;;;;;;18.56;100.00;-18526.53;5001021;28;20045;-78
2023/06/28 00:33:27;;;;;;;7.88;4.00;;;;;;;18.57;100.00;-18526.81;5001130;28;20089;-78
2023/06/28 00:35:52;;;;;;;6.22;3.67;;;;;;;18.59;100.00;-18527.22;5002856;28;20052;-80
2023/06/28 00:38:18;;;;;;;10.30;3.92;;;;;;;18.75;100.00;-18531.44;5001556;28;20398;-78
2023/06/28 00:40:43;;;;;;;8.05;3.67;;;;;;;18.77;100.00;-18532.00;5004608;28;20611;-81
2023/06/28 00:43:08;;;;;;;10.68;4.00;;;;;;;18.65;100.00;-18528.97;5007782;28;20042;-80
2023/06/28 00:45:34;;;;;;;7.18;3.60;;;;;;;18.69;100.00;-18529.94;4996781;28;20046;-78
2023/06/28 00:47:59;;;;;;;6.75;3.42;;;;;;;18.50;100.00;-18524.91;4989849;28;20085;-78
2023/06/28 00:50:26;;;;;;;6.53;3.33;;;;;;;18.55;100.00;-18526.25;5005133;28;20037;-79
2023/06/28 00:52:52;;;;;;;6.88;3.88;;;;;;;18.42;100.00;-18522.72;5001847;28;20042;-78
2023/06/28 00:55:17;;;;;;;10.35;4.25;;;;;;;18.49;100.00;-18524.63;4985107;28;20050;-80
2023/06/28 00:57:43;;;;;;;10.40;4.57;;;;;;;18.21;100.00;-18517.13;4985909;28;20101;-79
2023/06/28 01:00:12;;;;;;;7.82;4.15;;;;;;;18.36;100.00;-18521.22;4986509;28;20092;-78
2023/06/28 01:02:41;;;;;;;7.63;4.05;;;;;;;18.40;100.00;-18522.16;4988173;28;20070;-80
2023/06/28 01:05:08;;;;;;;8.18;4.30;;;;;;;18.30;100.00;-18519.44;4986825;28;20403;-78
2023/06/28 01:07:36;;;;;;;8.05;4.22;;;;;;;18.12;100.00;-18514.81;4991504;28;20072;-79
2023/06/28 01:10:02;;;;;;;6.38;4.07;;;;;;;18.22;100.00;-18517.53;4983025;28;20039;-79
2023/06/28 01:12:28;;;;;;;9.73;4.78;;;;;;;18.30;100.00;-18519.44;4995280;28;20104;-82
2023/06/28 01:14:53;;;;;;;7.43;4.22;;;;;;;18.49;100.00;-18524.75;4985894;28;20038;-78
2023/06/28 01:17:19;;;;;;;6.68;4.45;;;;;;;18.66;100.00;-18529.25;4987732;28;20159;-78
2023/06/28 01:19:45;;;;;;;9.25;4.78;;;;;;;18.75;100.00;-18531.56;4984671;28;20035;-79
2023/06/28 01:22:12;;;;;;;8.82;4.47;;;;;;;18.78;100.00;-18532.41;4987872;28;20468;-79
2023/06/28 01:24:38;;;;;;;10.18;4.90;;;;;;;18.69;100.00;-18529.94;4981882;28;20129;-80
2023/06/28 01:27:08;;;;;;;7.47;4.32;;;;;;;18.65;100.00;-18528.97;4986000;28;20117;-78
2023/06/28 01:29:33;;;;;;;11.10;4.90;;;;;;;18.39;100.00;-18521.91;4981257;28;20410;-79
2023/06/28 01:31:59;;;;;;;7.88;4.90;;;;;;;18.33;100.00;-18520.25;4982735;28;20104;-78
2023/06/28 01:34:26;;;;;;;7.78;4.40;;;;;;;18.27;100.00;-18518.75;4987289;28;20046;-80
2023/06/28 01:36:55;;;;;;;7.45;4.80;;;;;;;18.19;100.00;-18516.72;4983765;28;20105;-78
2023/06/28 01:39:21;;;;;;;6.22;4.30;;;;;;;18.31;100.00;-18519.84;4986717;28;20100;-77
2023/06/28 01:41:47;;;;;;;8.27;4.28;;;;;;;18.29;100.00;-18519.16;4982897;28;20042;-79
2023/06/28 01:44:13;;;;;;;9.73;4.40;;;;;;;18.41;100.00;-18522.44;4977667;28;20101;-79
2023/06/28 01:46:39;;;;;;;9.93;4.28;;;;;;;18.40;100.00;-18522.31;4984421;28;20174;-79
2023/06/28 01:49:06;;;;;;;6.60;4.32;;;;;;;18.23;100.00;-18517.81;4982900;28;20074;-78
2023/06/28 01:51:33;;;;;;;9.98;4.85;;;;;;;18.23;100.00;-18517.81;4984823;28;20049;-80
2023/06/28 01:53:59;;;;;;;7.25;4.45;;;;;;;18.15;100.00;-18515.47;4983265;28;20145;-80
2023/06/28 01:56:25;;;;;;;6.00;4.25;;;;;;;18.15;100.00;-18515.63;4984995;28;20066;-78
2023/06/28 01:58:50;;;;;;;7.63;3.97;;;;;;;18.08;100.00;-18513.72;4985273;28;20575;-78
2023/06/28 02:01:16;;;;;;;6.32;4.22;;;;;;;18.04;100.00;-18512.63;4985765;28;20034;-79
2023/06/28 02:03:41;;;;;;;8.48;4.60;;;;;;;18.14;100.00;-18515.22;4983758;28;20084;-80
2023/06/28 02:06:08;;;;;;;8.55;4.50;;;;;;;18.02;100.00;-18512.22;4986232;28;20483;-78
2023/06/28 02:08:34;;;;;;;8.52;4.93;;;;;;;18.15;100.00;-18515.47;4984385;28;20042;-79
2023/06/28 02:10:59;;;;;;;9.10;4.50;;;;;;;18.16;100.00;-18515.91;4985245;28;20045;-78
2023/06/28 02:13:24;;;;;;;9.82;4.80;;;;;;;18.18;100.00;-18516.44;4986652;28;20069;-78
2023/06/28 02:15:50;;;;;;;10.45;5.05;;;;;;;18.15;100.00;-18515.63;4979617;28;20070;-80
2023/06/28 02:18:16;;;;;;;10.38;4.85;;;;;;;18.32;100.00;-18519.97;4982814;28;20069;-77
2023/06/28 02:20:43;;;;;;;7.53;5.00;;;;;;;18.48;100.00;-18524.47;4984821;28;20042;-79
2023/06/28 02:23:08;;;;;;;9.82;4.32;;;;;;;18.51;100.00;-18525.16;4986317;28;20038;-78
2023/06/28 02:25:34;;;;;;;7.18;4.82;;;;;;;18.48;100.00;-18524.34;4985681;28;20505;-79
2023/06/28 02:27:59;;;;;;;6.30;4.32;;;;;;;18.42;100.00;-18522.84;4994778;28;20045;-78
2023/06/28 02:30:24;;;;;;;9.35;4.72;;;;;;;18.37;100.00;-18521.47;5005344;28;20048;-78
2023/06/28 02:32:50;;;;;;;8.80;4.57;;;;;;;18.40;100.00;-18522.31;5003119;28;20050;-78
2023/06/28 02:35:15;;;;;;;7.35;4.25;;;;;;;18.22;100.00;-18517.53;5002993;28;20409;-78
2023/06/28 02:37:41;;;;;;;10.35;4.78;;;;;;;18.13;100.00;-18515.06;5002821;28;20599;-78
2023/06/28 02:40:09;;;;;;;7.32;5.03;;;;;;;18.04;100.00;-18512.75;5004434;28;20405;-83
2023/06/28 02:42:34;;;;;;;9.32;4.88;;;;;;;18.25;100.00;-18518.22;5004937;28;20041;-81
2023/06/28 02:45:00;;;;;;;7.68;5.03;;;;;;;18.38;100.00;-18521.75;5004185;28;20774;-78
2023/06/28 02:47:25;;;;;;;11.05;4.88;;;;;;;18.62;100.00;-18528.16;5004232;28;20054;-78
2023/06/28 02:49:50;;;;;;;9.63;4.72;;;;;;;18.68;100.00;-18529.81;5003375;28;20065;-78
2023/06/28 02:52:16;;;;;;;7.53;4.68;;;;;;;18.53;100.00;-18525.56;5003150;28;20053;-79
2023/06/28 02:54:41;;;;;;;9.52;5.30;;;;;;;18.58;100.00;-18527.06;5004953;28;20064;-82
2023/06/28 02:57:09;;;;;;;9.15;5.43;;;;;;;18.70;100.00;-18530.22;5010312;28;20417;-79
2023/06/28 02:59:34;;;;;;;10.50;5.32;;;;;;;18.76;100.00;-18531.84;4984269;28;20580;-79
2023/06/28 03:02:01;;;;;;;11.57;5.35;;;;;;;18.90;100.00;-18535.53;4984832;28;20121;-79
2023/06/28 03:04:27;;;;;;;11.43;5.78;;;;;;;19.01;100.00;-18538.41;4997241;28;20038;-81
2023/06/28 03:06:53;;;;;;;9.00;5.32;;;;;;;18.98;100.00;-18537.72;5000604;28;20374;-79
2023/06/28 03:09:20;;;;;;;10.23;4.82;;;;;;;19.00;100.00;-18538.25;5000327;28;20457;-80
2023/06/28 03:11:46;;;;;;;9.85;5.15;;;;;;;18.92;100.00;-18536.22;5003678;28;20030;-80
2023/06/28 03:14:11;;;;;;;12.05;5.47;;;;;;;19.16;100.00;-18542.47;5002145;28;20096;-80
2023/06/28 03:16:37;;;;;;;9.60;5.43;;;;;;;19.19;100.00;-18543.16;5002923;28;20140;-79
2023/06/28 03:19:02;;;;;;;10.63;6.05;;;;;;;19.21;100.00;-18543.72;5003554;28;20038;-78
2023/06/28 03:21:28;;;;;;;12.27;5.55;;;;;;;19.23;100.00;-18544.25;5004963;28;20450;-83
2023/06/28 03:23:53;;;;;;;9.60;4.90;;;;;;;18.96;100.00;-18537.03;5004675;28;20049;-80
2023/06/28 03:26:18;;;;;;;8.57;5.18;;;;;;;18.82;100.00;-18533.34;5003927;28;20042;-79
2023/06/28 03:28:44;;;;;;;8.70;5.18;;;;;;;19.06;100.00;-18539.75;5003230;28;20512;-78
2023/06/28 03:31:09;;;;;;;8.13;4.70;;;;;;;18.99;100.00;-18537.84;5004286;28;20046;-78
2023/06/28 03:33:34;;;;;;;8.35;5.15;;;;;;;18.85;100.00;-18534.16;4999323;28;20046;-80
2023/06/28 03:36:00;;;;;;;7.63;4.75;;;;;;;18.86;100.00;-18534.44;5003719;28;20047;-78
2023/06/28 03:38:25;;;;;;;9.77;5.45;;;;;;;19.14;100.00;-18541.94;4997571;28;20589;-78
2023/06/28 03:40:50;;;;;;;7.80;4.28;;;;;;;19.14;100.00;-18542.06;4982538;28;20034;-79
2023/06/28 03:43:15;;;;;;;9.70;5.18;;;;;;;19.30;100.00;-18546.16;4984733;28;20061;-78
2023/06/28 03:45:41;;;;;;;8.95;5.07;;;;;;;19.26;100.00;-18545.06;4983836;28;20038;-79
2023/06/28 03:48:06;;;;;;;7.40;4.72;;;;;;;19.20;100.00;-18543.44;4984816;28;20125;-79
2023/06/28 03:50:32;;;;;;;8.20;4.25;;;;;;;19.33;100.00;-18547.13;4984347;28;20045;-77
2023/06/28 03:52:57;;;;;;;8.30;4.25;;;;;;;19.40;100.00;-18548.88;4981913;28;20038;-79
2023/06/28 03:55:22;;;;;;;9.25;4.70;;;;;;;19.24;100.00;-18544.53;4982815;28;20065;-78
2023/06/28 03:57:48;;;;;;;8.38;3.80;;;;;;;19.24;100.00;-18544.66;4997907;28;20049;-77
2023/06/28 04:00:15;;;;;;;6.88;3.70;;;;;;;19.09;100.00;-18540.56;4978227;28;20102;-78
2023/06/28 04:02:40;;;;;;;7.95;3.75;;;;;;;19.19;100.00;-18543.16;4985542;28;20154;-78
2023/06/28 04:05:06;;;;;;;9.05;4.25;;;;;;;19.40;100.00;-18548.88;4983654;28;20133;-77
2023/06/28 04:07:31;;;;;;;6.63;3.45;;;;;;;19.17;100.00;-18542.88;4982585;28;20042;-78
2023/06/28 04:09:57;;;;;;;7.93;3.85;;;;;;;19.23;100.00;-18544.25;4978507;28;20050;-78
2023/06/28 04:12:22;;;;;;;6.13;3.90;;;;;;;19.19;100.00;-18543.16;4985812;28;20093;-78
2023/06/28 04:14:49;;;;;;;9.18;4.00;;;;;;;19.39;100.00;-18548.75;4987935;28;20050;-79
2023/06/28 04:17:15;;;;;;;7.18;3.38;;;;;;;19.77;100.00;-18558.69;4985454;28;20043;-78
2023/06/28 04:19:40;;;;;;;8.40;4.68;;;;;;;19.85;100.00;-18560.88;4991664;28;20394;-78
2023/06/28 04:22:05;;;;;;;9.38;3.67;;;;;;;19.50;100.00;-18551.47;4986558;28;20038;-78
2023/06/28 04:24:31;;;;;;;6.97;3.70;;;;;;;19.57;100.00;-18553.50;4983281;28;20042;-78
2023/06/28 04:27:00;;;;;;;9.85;4.18;;;;;;;19.41;100.00;-18549.03;4987774;28;20081;-78
2023/06/28 04:29:28;;;;;;;7.55;3.60;;;;;;;19.55;100.00;-18552.84;4987191;28;20046;-78
2023/06/28 04:31:58;;;;;;;7.67;4.07;;;;;;;19.42;100.00;-18549.28;4987711;28;20372;-78
2023/06/28 04:34:24;;;;;;;9.82;4.20;;;;;;;19.53;100.00;-18552.44;4988412;28;20277;-79
2023/06/28 04:36:49;;;;;;;9.15;4.53;;;;;;;19.26;100.00;-18545.22;4987552;28;20094;-78
2023/06/28 04:39:15;;;;;;;8.00;3.70;;;;;;;19.32;100.00;-18546.72;4987052;28;20126;-78
2023/06/28 04:41:40;;;;;;;7.95;4.07;;;;;;;19.70;100.00;-18556.94;4991178;28;20112;-79
2023/06/28 04:44:09;;;;;;;7.03;4.22;;;;;;;19.55;100.00;-18552.97;4986417;28;20112;-78
2023/06/28 04:46:35;;;;;;;7.57;4.43;;;;;;;19.65;100.00;-18555.56;4989171;28;20148;-83
2023/06/28 04:49:00;;;;;;;7.82;4.15;;;;;;;19.48;100.00;-18551.06;4988034;28;20498;-79
2023/06/28 04:51:26;;;;;;;10.93;4.93;;;;;;;19.59;100.00;-18554.06;4988875;28;20057;-78
2023/06/28 04:53:51;;;;;;;7.43;4.38;;;;;;;19.48;100.00;-18550.94;4989931;28;20050;-79
2023/06/28 04:56:17;;;;;;;12.32;4.72;;;;;;;19.55;100.00;-18552.84;4987631;28;20514;-80
2023/06/28 04:58:42;;;;;;;6.22;3.67;;;;;;;19.54;100.00;-18552.69;4986379;28;20054;-78
2023/06/28 05:01:08;;;;;;;8.18;4.40;;;;;;;19.52;100.00;-18552.16;4992233;28;20050;-79
2023/06/28 05:03:35;;;;;;;6.72;4.55;;;;;;;19.52;100.00;-18552.16;4984481;28;20046;-80
2023/06/28 05:06:07;;;;;;;9.85;4.45;;;;;;;19.41;100.00;-18549.16;4985579;28;20038;-78
2023/06/28 05:08:33;;;;;;;8.77;4.38;;;;;;;19.48;100.00;-18551.06;4985183;28;20548;-79
2023/06/28 05:10:59;;;;;;;6.55;3.65;;;;;;;19.24;100.00;-18544.53;4986793;28;20074;-78
2023/06/28 05:13:24;;;;;;;7.57;4.07;;;;;;;19.49;100.00;-18551.34;4987279;28;20073;-78
2023/06/28 05:15:50;;;;;;;6.65;3.80;;;;;;;19.35;100.00;-18547.53;4996575;28;20073;-79
2023/06/28 05:18:15;;;;;;;7.93;4.10;;;;;;;19.56;100.00;-18553.25;4981935;28;20054;-78
2023/06/28 05:20:40;;;;;;;7.90;4.28;;;;;;;19.61;100.00;-18554.47;4987433;28;20074;-78
2023/06/28 05:23:11;;;;;;;11.77;4.95;;;;;;;19.64;100.00;-18555.28;4989674;28;20042;-78
2023/06/28 05:25:40;;;;;;;10.07;4.60;;;;;;;19.60;100.00;-18554.34;4989474;28;20054;-78
2023/06/28 05:28:07;;;;;;;9.68;4.82;;;;;;;19.42;100.00;-18549.44;4989036;28;20096;-78
2023/06/28 05:30:32;;;;;;;10.93;5.35;;;;;;;19.51;100.00;-18551.88;4989221;28;20065;-78
2023/06/28 05:32:58;;;;;;;12.85;5.25;;;;;;;19.59;100.00;-18553.91;4986357;28;20069;-77
2023/06/28 05:35:24;;;;;;;9.18;5.60;;;;;;;19.55;100.00;-18552.97;4984821;28;20069;-78
2023/06/28 05:37:50;;;;;;;9.07;5.03;;;;;;;19.70;100.00;-18556.78;4985447;28;20120;-78
2023/06/28 05:40:15;;;;;;;9.15;4.65;;;;;;;19.83;100.00;-18560.34;4994443;28;20454;-78
2023/06/28 05:42:41;;;;;;;10.20;4.82;;;;;;;19.65;100.00;-18555.56;4982423;28;20043;-79
2023/06/28 05:45:07;;;;;;;9.25;4.93;;;;;;;19.69;100.00;-18556.53;4980459;28;20037;-79
2023/06/28 05:47:33;;;;;;;9.20;4.63;;;;;;;19.34;100.00;-18547.38;4985014;28;20125;-78
2023/06/28 05:49:58;;;;;;;8.68;5.15;;;;;;;19.49;100.00;-18551.34;4984936;28;20130;-77
2023/06/28 05:52:24;;;;;;;7.60;4.65;;;;;;;19.58;100.00;-18553.78;4986352;28;20054;-78
2023/06/28 05:54:49;;;;;;;7.63;4.55;;;;;;;19.51;100.00;-18551.88;4986645;28;20097;-78
2023/06/28 05:57:14;;;;;;;9.70;5.30;;;;;;;19.71;100.00;-18557.06;4985605;28;20086;-78
2023/06/28 05:59:40;;;;;;;8.82;4.85;;;;;;;19.77;100.00;-18558.84;4984472;28;20116;-78
2023/06/28 06:02:05;;;;;;;11.00;4.28;;;;;;;19.70;100.00;-18556.78;4992713;28;20172;-78
2023/06/28 06:04:31;;;;;;;9.60;3.80;;;;;;;19.68;100.00;-18556.25;5010089;28;20195;-78
2023/06/28 06:06:56;;;;;;;7.82;3.70;;;;;;;19.78;100.00;-18559.09;5017926;28;20057;-78
2023/06/28 06:09:21;;;;;;;6.55;3.13;;;;;;;19.89;100.00;-18561.97;5003685;28;20497;-79
2023/06/28 06:11:47;;;;;;;7.65;3.50;;;;;;;19.86;100.00;-18561.00;5006201;28;20520;-78
2023/06/28 06:14:12;;;;;;;8.38;3.30;;;;;;;19.82;100.00;-18560.06;5002913;28;20568;-78
2023/06/28 06:16:37;;;;;;;5.72;3.40;;;;;;;19.61;100.00;-18554.59;5004846;28;20042;-79
2023/06/28 06:19:03;;;;;;;9.23;3.75;;;;;;;19.75;100.00;-18558.16;5003837;28;20065;-78
2023/06/28 06:21:28;;;;;;;13.90;4.60;;;;;;;19.63;100.00;-18555.00;5003209;28;20163;-78
2023/06/28 06:23:53;;;;;;;8.05;3.90;;;;;;;19.77;100.00;-18558.84;5005837;28;20041;-78
2023/06/28 06:26:19;;;;;;;10.70;3.80;;;;;;;19.80;100.00;-18559.50;5003783;28;20041;-78
2023/06/28 06:28:44;;;;;;;7.25;3.83;;;;;;;19.66;100.00;-18555.69;5007701;28;20029;-80
2023/06/28 06:31:13;;;;;;;8.68;4.20;;;;;;;19.89;100.00;-18561.97;5008011;28;20468;-78
2023/06/28 06:33:39;;;;;;;6.57;4.45;;;;;;;19.88;100.00;-18561.56;4987857;28;20580;-79
2023/06/28 06:36:05;;;;;;;9.88;4.70;;;;;;;19.83;100.00;-18560.47;4992783;28;20069;-79
2023/06/28 06:38:30;;;;;;;9.32;4.70;;;;;;;19.74;100.00;-18557.88;4988122;28;20506;-77
2023/06/28 06:40:55;;;;;;;8.93;4.78;;;;;;;19.63;100.00;-18554.88;4988286;28;20049;-78
2023/06/28 06:43:21;;;;;;;11.43;5.43;;;;;;;19.71;100.00;-18557.06;4989261;28;20042;-79
2023/06/28 06:45:46;;;;;;;9.18;4.60;;;;;;;19.70;100.00;-18556.78;4988754;28;20043;-78
2023/06/28 06:48:12;;;;;;;8.88;4.95;;;;;;;19.73;100.00;-18557.59;5000933;28;20121;-78
2023/06/28 06:50:37;;;;;;;11.52;4.95;;;;;;;19.65;100.00;-18555.56;5006657;28;20152;-78
2023/06/28 06:53:03;;;;;;;12.25;5.13;;;;;;;19.61;100.00;-18554.47;5007691;28;20044;-77
2023/06/28 06:55:29;;;;;;;10.68;5.32;;;;;;;19.47;100.00;-18550.78;5006251;28;20073;-79
2023/06/28 06:57:54;;;;;;;10.48;5.50;;;;;;;19.56;100.00;-18553.25;4994702;28;20405;-78
2023/06/28 07:00:20;;;;;;;11.45;6.50;;;;;;;19.51;100.00;-18551.88;4984865;28;20035;-79
2023/06/28 07:02:45;;;;;;;13.25;5.43;;;;;;;19.39;100.00;-18548.59;4987495;28;20034;-79
2023/06/28 07:05:11;;;;;;;9.20;4.97;;;;;;;19.34;100.00;-18547.38;4987303;28;20689;-78
2023/06/28 07:07:36;;;;;;;9.63;5.68;;;;;;;19.63;100.00;-18555.00;4987905;28;20564;-78
2023/06/28 07:10:01;;;;;;;12.15;6.47;;;;;;;19.74;100.00;-18557.88;4986961;28;20040;-78
2023/06/28 07:12:27;;;;;;;13.75;6.18;;;;;;;19.63;100.00;-18554.88;4987796;28;20078;-78
2023/06/28 07:14:52;;;;;;;8.38;5.78;;;;;;;19.56;100.00;-18553.25;4987930;28;20055;-78
2023/06/28 07:17:18;;;;;;;8.52;5.07;;;;;;;19.72;100.00;-18557.34;4986693;28;20680;-77
2023/06/28 07:19:43;;;;;;;10.55;6.10;;;;;;;19.68;100.00;-18556.25;4995728;28;20657;-78
2023/06/28 07:22:08;;;;;;;12.25;5.93;;;;;;;19.85;100.00;-18560.88;4984352;28;20078;-78
2023/06/28 07:24:34;;;;;;;8.43;5.03;;;;;;;19.84;100.00;-18560.75;4998825;28;20033;-78
2023/06/28 07:26:59;;;;;;;12.73;5.07;;;;;;;19.78;100.00;-18559.09;4999053;28;20092;-77
2023/06/28 07:29:24;;;;;;;8.27;3.92;;;;;;;19.89;100.00;-18561.81;5001446;28;20398;-80
2023/06/28 07:31:50;;;;;;;7.80;3.95;;;;;;;19.66;100.00;-18555.69;4999660;28;20100;-78
2023/06/28 07:34:15;;;;;;;8.30;4.35;;;;;;;19.91;100.00;-18562.50;5006628;28;20112;-79
2023/06/28 07:36:41;;;;;;;9.43;3.88;;;;;;;19.92;100.00;-18562.78;4998970;28;20058;-81
2023/06/28 07:39:09;;;;;;;12.77;4.45;;;;;;;19.82;100.00;-18560.06;4983018;28;20046;-78
2023/06/28 07:41:34;;;;;;;13.75;4.50;;;;;;;20.09;100.00;-18567.13;4987884;28;20038;-78
2023/06/28 07:44:00;;;;;;;11.02;4.28;;;;;;;19.96;100.00;-18563.72;4990609;28;20448;-78
2023/06/28 07:46:25;;;;;;;7.97;3.92;;;;;;;19.94;100.00;-18563.31;5004527;28;20050;-79
2023/06/28 07:48:53;;;;;;;6.78;3.33;;;;;;;19.69;100.00;-18556.66;4994796;28;20129;-77
2023/06/28 07:51:18;;;;;;;8.73;4.22;;;;;;;19.50;100.00;-18551.59;5010146;28;20466;-77
2023/06/28 07:53:45;;;;;;;9.25;4.20;;;;;;;19.63;100.00;-18555.00;5006434;28;20057;-78
2023/06/28 07:56:11;;;;;;;8.85;4.03;;;;;;;19.71;100.00;-18557.06;5007876;28;20077;-78
2023/06/28 07:58:37;;;;;;;7.85;3.90;;;;;;;19.74;100.00;-18558.00;5009504;28;20046;-81
2023/06/28 08:01:02;;;;;;;10.23;4.38;;;;;;;19.68;100.00;-18556.38;5004689;28;20069;-78
2023/06/28 08:03:28;;;;;;;8.20;3.90;;;;;;;19.66;100.00;-18555.84;5006036;28;20049;-80
2023/06/28 08:05:53;;;;;;;10.15;3.80;;;;;;;19.52;100.00;-18552.16;5009324;28;20042;-78
2023/06/28 08:08:18;;;;;;;13.80;4.22;;;;;;;19.54;100.00;-18552.69;5000829;28;20042;-78
2023/06/28 08:10:44;;;;;;;10.55;4.10;;;;;;;19.50;100.00;-18551.47;5003093;28;20034;-78
2023/06/28 08:13:09;;;;;;;9.38;3.65;;;;;;;19.30;100.00;-18546.16;5009980;28;20112;-78
2023/06/28 08:15:36;;;;;;;9.05;4.38;;;;;;;19.51;100.00;-18551.88;5010744;28;20493;-79
2023/06/28 08:18:02;;;;;;;10.40;4.47;;;;;;;19.69;100.00;-18556.53;5009882;28;20128;-78
2023/06/28 08:20:29;;;;;;;7.88;3.60;;;;;;;19.69;100.00;-18556.53;5008881;28;20104;-79
2023/06/28 08:22:54;;;;;;;9.23;4.50;;;;;;;19.86;100.00;-18561.16;5010781;28;20037;-79
2023/06/28 08:25:20;;;;;;;9.32;4.70;;;;;;;20.06;100.00;-18566.47;5009709;28;20494;-78
2023/06/28 08:27:45;;;;;;;13.25;4.57;;;;;;;20.04;100.00;-18566.03;4994482;28;20129;-79
2023/06/28 08:30:11;;;;;;;10.63;4.72;;;;;;;20.22;100.00;-18570.69;4985421;28;20061;-79
2023/06/28 08:32:36;;;;;;;10.32;4.05;;;;;;;20.31;100.00;-18573.00;4995746;28;20047;-78
2023/06/28 08:35:03;;;;;;;8.35;3.72;;;;;;;20.37;100.00;-18574.75;4985778;28;20217;-78
2023/06/28 08:37:30;;;;;;;8.18;4.05;;;;;;;20.46;100.00;-18577.22;4987031;28;20047;-78
2023/06/28 08:39:55;;;;;;;8.13;4.38;;;;;;;20.47;100.00;-18577.47;4996237;28;20100;-80
2023/06/28 08:42:21;;;;;;;8.43;4.47;;;;;;;20.59;100.00;-18580.47;5007699;28;20045;-80
2023/06/28 08:44:51;;;;;;;7.90;4.43;;;;;;;20.67;100.00;-18582.66;5005313;28;20049;-80
2023/06/28 08:47:17;;;;;;;9.02;4.30;;;;;;;20.53;100.00;-18578.84;5003003;28;20104;-78
2023/06/28 08:49:43;;;;;;;9.05;4.68;;;;;;;20.65;100.00;-18582.09;5008669;28;20042;-81
2023/06/28 08:52:09;;;;;;;7.85;4.43;;;;;;;20.77;100.00;-18585.38;5009444;28;20042;-79
2023/06/28 08:54:37;;;;;;;8.55;4.07;;;;;;;20.70;100.00;-18583.59;4987538;28;20081;-79
2023/06/28 08:57:04;;;;;;;10.77;4.25;;;;;;;20.73;100.00;-18584.28;4992578;28;20482;-80
2023/06/28 08:59:30;;;;;;;8.70;3.80;;;;;;;20.79;100.00;-18585.91;5008624;28;20516;-79
2023/06/28 09:01:59;;;;;;;11.20;4.95;;;;;;;20.78;100.00;-18585.50;5008299;28;20037;-81
2023/06/28 09:04:26;;;;;;;11.93;4.85;;;;;;;20.76;100.00;-18585.09;5009620;28;20064;-78
2023/06/28 09:06:52;;;;;;;9.43;4.15;;;;;;;20.97;100.00;-18590.69;5009604;28;20050;-79
2023/06/28 09:09:18;;;;;;;10.95;4.70;;;;;;;21.02;100.00;-18591.91;5008359;28;20567;-79
2023/06/28 09:11:44;;;;;;;13.05;5.25;;;;;;;20.82;100.00;-18586.72;5008723;28;20499;-79
2023/06/28 09:14:10;;;;;;;10.15;4.97;;;;;;;20.69;100.00;-18583.19;4996513;28;20034;-80
2023/06/28 09:16:36;;;;;;;11.75;5.63;;;;;;;20.83;100.00;-18587.00;5008880;28;20037;-80
2023/06/28 09:19:01;;;;;;;10.60;5.43;;;;;;;20.99;100.00;-18591.22;5005198;28;20104;-78
2023/06/28 09:21:28;;;;;;;8.82;4.90;;;;;;;21.02;100.00;-18591.91;5001310;28;20428;-79
2023/06/28 09:23:54;;;;;;;12.52;6.07;;;;;;;20.94;100.00;-18590.00;5006593;28;20103;-80
2023/06/28 09:26:28;;;;;;;10.15;5.32;;;;;;;20.88;100.00;-18588.38;5002257;28;20048;-79
2023/06/28 09:28:53;;;;;;;12.23;5.25;;;;;;;20.93;100.00;-18589.59;5004321;28;20117;-80
2023/06/28 09:31:19;;;;;;;14.95;6.45;;;;;;;20.76;100.00;-18585.09;5006625;28;20117;-80
2023/06/28 09:33:44;;;;;;;13.77;6.63;;;;;;;20.86;100.00;-18587.81;5004306;28;20035;-79
2023/06/28 09:36:10;;;;;;;9.38;5.85;;;;;;;20.77;100.00;-18585.38;5003537;28;20077;-80
2023/06/28 09:38:42;;;;;;;10.52;6.00;;;;;;;20.84;100.00;-18587.16;5002745;28;20095;-79
2023/06/28 09:41:08;;;;;;;15.13;6.50;;;;;;;20.75;100.00;-18584.69;5003835;28;20046;-81
2023/06/28 09:43:35;;;;;;;11.95;5.82;;;;;;;20.77;100.00;-18585.38;5004875;28;20046;-79
2023/06/28 09:46:17;;;;;;;11.27;5.70;;;;;;;20.76;100.00;-18584.97;5002002;28;20046;-79
2023/06/28 09:48:44;;;;;;;13.48;6.10;;;;;;;20.90;100.00;-18588.78;5011075;28;20045;-78
2023/06/28 09:51:11;;;;;;;15.77;5.75;;;;;;;20.99;100.00;-18591.22;5015259;28;20062;-79
2023/06/28 09:53:50;;;;;;;12.30;5.38;;;;;;;20.96;100.00;-18590.41;5013048;28;20058;-79
2023/06/28 09:56:16;;;;;;;11.90;5.45;;;;;;;20.91;100.00;-18589.19;5010307;28;20072;-77
2023/06/28 09:58:45;;;;;;;9.23;5.05;;;;;;;20.73;100.00;-18584.41;5012926;28;20042;-78
2023/06/28 10:01:11;;;;;;;9.00;5.38;;;;;;;20.52;100.00;-18578.72;5013017;28;20112;-78
2023/06/28 10:03:38;;;;;;;15.70;6.22;;;;;;;20.61;100.00;-18581.16;5013341;28;20056;-79
2023/06/28 10:06:05;;;;;;;12.30;5.18;;;;;;;20.55;100.00;-18579.53;5008808;28;20044;-79
2023/06/28 10:08:31;;;;;;;10.90;6.32;;;;;;;20.68;100.00;-18582.94;5007500;28;20053;-79
2023/06/28 10:10:56;;;;;;;14.25;6.50;;;;;;;20.77;100.00;-18585.38;5003241;28;20034;-79
2023/06/28 10:13:22;;;;;;;15.23;6.82;;;;;;;20.62;100.00;-18581.28;5010707;28;20205;-79
2023/06/28 10:15:58;;;;;;;13.07;6.82;;;;;;;20.77;100.00;-18585.38;5013118;28;20141;-79
2023/06/28 10:18:24;;;;;;;16.90;8.38;;;;;;;20.91;100.00;-18589.03;5010982;28;20054;-79
2023/06/28 10:20:50;;;;;;;14.63;7.07;;;;;;;20.79;100.00;-18585.91;5011282;28;20073;-79
2023/06/28 10:23:17;;;;;;;11.82;6.57;;;;;;;20.42;100.00;-18576.13;5008797;28;20041;-79
2023/06/28 10:25:45;;;;;;;18.27;7.22;;;;;;;20.91;100.00;-18589.03;5012123;28;20042;-79
2023/06/28 10:28:13;;;;;;;12.10;6.88;;;;;;;20.86;100.00;-18587.69;5011569;28;20456;-79
2023/06/28 10:30:40;;;;;;;8.32;5.70;;;;;;;20.79;100.00;-18585.91;5001448;28;20556;-79
2023/06/28 10:33:06;;;;;;;12.50;5.68;;;;;;;21.07;100.00;-18593.25;5008916;28;20109;-79
2023/06/28 10:35:32;;;;;;;13.48;5.35;;;;;;;21.17;100.00;-18595.97;5010412;28;20552;-79
2023/06/28 10:37:58;;;;;;;10.07;6.00;;;;;;;21.31;100.00;-18599.78;5006489;28;20136;-79
2023/06/28 10:40:25;;;;;;;11.25;5.85;;;;;;;20.98;100.00;-18590.94;5009809;28;20485;-79
2023/06/28 10:42:51;;;;;;;11.38;5.65;;;;;;;20.97;100.00;-18590.69;5009586;28;20045;-79
2023/06/28 10:45:16;;;;;;;12.65;5.85;;;;;;;21.18;100.00;-18596.25;5009588;28;20050;-79
2023/06/28 10:47:55;;;;;;;9.35;5.60;;;;;;;21.23;100.00;-18597.63;5011440;28;20046;-80
2023/06/28 10:50:22;;;;;;;11.50;6.15;;;;;;;21.25;100.00;-18598.03;5008438;28;20375;-79
2023/06/28 10:52:57;;;;;;;11.60;5.47;;;;;;;21.24;100.00;-18597.75;5011614;28;20045;-80
2023/06/28 10:55:34;;;;;;;8.48;5.60;;;;;;;21.42;100.00;-18602.50;5010967;28;20046;-79
2023/06/28 10:58:11;;;;;;;9.73;6.05;;;;;;;21.56;100.00;-18606.31;5012157;28;20822;-79
2023/06/28 11:00:36;;;;;;;12.93;6.18;;;;;;;21.37;100.00;-18601.41;5013283;28;20042;-83
2023/06/28 11:03:04;;;;;;;11.32;6.60;;;;;;;21.33;100.00;-18600.34;5004426;28;20038;-80
2023/06/28 11:05:44;;;;;;;15.38;6.38;;;;;;;21.42;100.00;-18602.66;5006919;28;20045;-81
2023/06/28 11:08:17;;;;;;;12.57;5.47;;;;;;;21.43;100.00;-18602.78;5005059;28;20104;-81
2023/06/28 11:10:45;;;;;;;12.30;5.82;;;;;;;21.46;100.00;-18603.72;5004816;28;20046;-81